Time;durP1;ratioP1;P1;durP2;ratioP2;P2;SDS_P1;SDS_P2;PMS_P1;PMS_P2;Temp;Humidity;BMP_temperature;BMP_pressure;BME280_temperature;BME280_humidity;BME280_pressure;Samples;Min_cycle;Max_cycle;Signal;HPM_P1;HPM_P2
2022/04/14 00:00:09;;;;;;;;;;;;;;;;;;5096036;28;20289;-40
2022/04/14 00:02:36;;;;;;;;;;;;;;;;;;5096349;28;19919;-48
2022/04/14 00:05:02;;;;;;;;;;;;;;;;;;5096530;28;19927;-44
2022/04/14 00:07:29;;;;;;;;;;;;;;;;;;5096601;28;19908;-46
2022/04/14 00:09:55;;;;;;;;;;;;;;;;;;5096460;28;19908;-49
2022/04/14 00:12:22;;;;;;;;;;;;;;;;;;5096181;28;20011;-49
2022/04/14 00:14:48;;;;;;;;;;;;;;;;;;5095059;28;19912;-54
2022/04/14 00:17:15;;;;;;;;;;;;;;;;;;5094289;28;19989;-54
2022/04/14 00:19:41;;;;;;;;;;;;;;;;;;5095034;28;19919;-56
2022/04/14 00:22:08;;;;;;;;;;;;;;;;;;5094611;28;19954;-51
2022/04/14 00:24:34;;;;;;;;;;;;;;;;;;5095097;28;19908;-49
2022/04/14 00:27:00;;;;;;;;;;;;;;;;;;5095107;28;19962;-51
2022/04/14 00:29:27;;;;;;;;;;;;;;;;;;5114137;28;19923;-55
2022/04/14 00:31:53;;;;;;;;;;;;;;;;;;5115260;28;20003;-54
2022/04/14 00:34:20;;;;;;;;;;;;;;;;;;5115050;28;19997;-53
2022/04/14 00:36:46;;;;;;;;;;;;;;;;;;5114849;28;19912;-55
2022/04/14 00:39:13;;;;;;;;;;;;;;;;;;5114137;28;20331;-48
2022/04/14 00:41:39;;;;;;;;;;;;;;;;;;5115149;28;19908;-53
2022/04/14 00:44:06;;;;;;;;;;;;;;;;;;5115004;28;19912;-54
2022/04/14 00:46:32;;;;;;;;;;;;;;;;;;5114587;28;19964;-52
2022/04/14 00:48:59;;;;;;;;;;;;;;;;;;5114916;28;19914;-53
2022/04/14 00:51:25;;;;;;;;;;;;;;;;;;5114497;28;19908;-56
2022/04/14 00:53:51;;;;;;;;;;;;;;;;;;5115257;28;19994;-51
2022/04/14 00:56:18;;;;;;;;;;;;;;;;;;5114437;28;19908;-46
2022/04/14 00:58:44;;;;;;;;;;;;;;;;;;5114500;28;19923;-47
2022/04/14 01:01:12;;;;;;;;;;;;;;;;;;5112984;28;20315;-55
2022/04/14 01:03:38;;;;;;;;;;;;;;;;;;5114198;28;19908;-50
2022/04/14 01:06:05;;;;;;;;;;;;;;;;;;5114363;28;19959;-56
2022/04/14 01:08:34;;;;;;;;;;;;;;;;;;5114093;28;19912;-55
2022/04/14 01:11:01;;;;;;;;;;;;;;;;;;5114019;28;19952;-53
2022/04/14 01:13:27;;;;;;;;;;;;;;;;;;5114438;28;19915;-52
2022/04/14 01:15:53;;;;;;;;;;;;;;;;;;5114213;28;19910;-53
2022/04/14 01:18:20;;;;;;;;;;;;;;;;;;5114279;28;19945;-53
2022/04/14 01:20:46;;;;;;;;;;;;;;;;;;5114272;28;20370;-55
2022/04/14 01:23:13;;;;;;;;;;;;;;;;;;5113725;28;20370;-54
2022/04/14 01:25:39;;;;;;;;;;;;;;;;;;5113703;28;19931;-55
2022/04/14 01:28:06;;;;;;;;;;;;;;;;;;5113251;28;19927;-51
2022/04/14 01:30:32;;;;;;;;;;;;;;;;;;5112160;28;20002;-51
2022/04/14 01:32:59;;;;;;;;;;;;;;;;;;5113889;28;20362;-54
2022/04/14 01:35:25;;;;;;;;;;;;;;;;;;5113882;28;19961;-52
2022/04/14 01:37:52;;;;;;;;;;;;;;;;;;5113937;28;20427;-45
2022/04/14 01:40:18;;;;;;;;;;;;;;;;;;5113702;28;19915;-54
2022/04/14 01:42:45;;;;;;;;;;;;;;;;;;5113393;28;19903;-48
2022/04/14 01:45:11;;;;;;;;;;;;;;;;;;5113912;28;19908;-53
2022/04/14 01:47:38;;;;;;;;;;;;;;;;;;5114241;28;19926;-57
2022/04/14 01:50:07;;;;;;;;;;;;;;;;;;5113347;28;19960;-55
2022/04/14 01:52:33;;;;;;;;;;;;;;;;;;5113953;28;19939;-53
2022/04/14 01:55:00;;;;;;;;;;;;;;;;;;5114130;28;19907;-54
2022/04/14 01:57:26;;;;;;;;;;;;;;;;;;5113425;28;19911;-49
2022/04/14 01:59:53;;;;;;;;;;;;;;;;;;5113402;28;19916;-43
2022/04/14 02:02:19;;;;;;;;;;;;;;;;;;5114028;28;19907;-45
2022/04/14 02:04:46;;;;;;;;;;;;;;;;;;5113156;28;19973;-40
2022/04/14 02:07:14;;;;;;;;;;;;;;;;;;5113274;28;20285;-47
2022/04/14 02:09:40;;;;;;;;;;;;;;;;;;5113650;28;19972;-45
2022/04/14 02:12:07;;;;;;;;;;;;;;;;;;5112813;28;20204;-51
2022/04/14 02:14:33;;;;;;;;;;;;;;;;;;5113400;28;19907;-45
2022/04/14 02:16:59;;;;;;;;;;;;;;;;;;5107987;27;19908;-42
2022/04/14 02:19:26;;;;;;;;;;;;;;;;;;5092838;28;20362;-41
2022/04/14 02:21:52;;;;;;;;;;;;;;;;;;5093068;28;19920;-50
2022/04/14 02:24:19;;;;;;;;;;;;;;;;;;5103872;28;20023;-49
2022/04/14 02:26:45;;;;;;;;;;;;;;;;;;5113175;28;19960;-52
2022/04/14 02:29:12;;;;;;;;;;;;;;;;;;5112631;28;19985;-46
2022/04/14 02:31:38;;;;;;;;;;;;;;;;;;5112902;28;19908;-49
2022/04/14 02:34:05;;;;;;;;;;;;;;;;;;5112119;28;19907;-48
2022/04/14 02:36:31;;;;;;;;;;;;;;;;;;5112423;28;19916;-57
2022/04/14 02:38:58;;;;;;;;;;;;;;;;;;5112573;28;19923;-48
2022/04/14 02:41:24;;;;;;;;;;;;;;;;;;5112604;28;19950;-55
2022/04/14 02:43:51;;;;;;;;;;;;;;;;;;5113019;28;19999;-51
2022/04/14 02:46:17;;;;;;;;;;;;;;;;;;5112311;28;19908;-52
2022/04/14 02:48:43;;;;;;;;;;;;;;;;;;5112734;28;19919;-49
2022/04/14 02:51:10;;;;;;;;;;;;;;;;;;5112594;28;19908;-53
2022/04/14 02:53:36;;;;;;;;;;;;;;;;;;5112501;28;19907;-48
2022/04/14 02:56:05;;;;;;;;;;;;;;;;;;5112784;28;19908;-49
2022/04/14 02:58:31;;;;;;;;;;;;;;;;;;5112103;28;19919;-52
2022/04/14 03:00:58;;;;;;;;;;;;;;;;;;5112641;28;19908;-54
2022/04/14 03:03:26;;;;;;;;;;;;;;;;;;5112628;28;19943;-53
2022/04/14 03:05:52;;;;;;;;;;;;;;;;;;5111237;28;19924;-55
2022/04/14 03:08:19;;;;;;;;;;;;;;;;;;5112497;28;19952;-49
2022/04/14 03:10:45;;;;;;;;;;;;;;;;;;5113055;28;19919;-51
2022/04/14 03:13:12;;;;;;;;;;;;;;;;;;5111905;28;19912;-56
2022/04/14 03:15:38;;;;;;;;;;;;;;;;;;5098809;28;19972;-43
2022/04/14 03:18:05;;;;;;;;;;;;;;;;;;5091895;28;19986;-52
2022/04/14 03:20:32;;;;;;;;;;;;;;;;;;5091579;28;19918;-56
2022/04/14 03:22:59;;;;;;;;;;;;;;;;;;5092114;28;19957;-54
2022/04/14 03:25:26;;;;;;;;;;;;;;;;;;5091620;28;19943;-52
2022/04/14 03:27:52;;;;;;;;;;;;;;;;;;5092216;28;20313;-49
2022/04/14 03:30:19;;;;;;;;;;;;;;;;;;5091819;28;19986;-55
2022/04/14 03:32:45;;;;;;;;;;;;;;;;;;5092515;28;20003;-52
2022/04/14 03:35:12;;;;;;;;;;;;;;;;;;5092448;28;19983;-51
2022/04/14 03:37:38;;;;;;;;;;;;;;;;;;5092243;28;19919;-49
2022/04/14 03:40:05;;;;;;;;;;;;;;;;;;5091681;28;20363;-54
2022/04/14 03:42:31;;;;;;;;;;;;;;;;;;5092054;28;19947;-52
2022/04/14 03:44:58;;;;;;;;;;;;;;;;;;5091566;28;19908;-55
2022/04/14 03:47:25;;;;;;;;;;;;;;;;;;5091794;28;19908;-50
2022/04/14 03:49:51;;;;;;;;;;;;;;;;;;5091756;28;19909;-53
2022/04/14 03:52:18;;;;;;;;;;;;;;;;;;5093306;28;20343;-52
2022/04/14 03:54:44;;;;;;;;;;;;;;;;;;5094503;28;19908;-49
2022/04/14 03:57:11;;;;;;;;;;;;;;;;;;5096033;28;19912;-54
2022/04/14 03:59:38;;;;;;;;;;;;;;;;;;5102929;28;19943;-51
2022/04/14 04:02:04;;;;;;;;;;;;;;;;;;5115822;28;19908;-48
2022/04/14 04:04:32;;;;;;;;;;;;;;;;;;5115803;28;20392;-53
2022/04/14 04:06:58;;;;;;;;;;;;;;;;;;5110731;28;20325;-53
2022/04/14 04:09:28;;;;;;;;;;;;;;;;;;5094815;28;20213;-52
2022/04/14 04:11:55;;;;;;;;;;;;;;;;;;5094759;28;20226;-55
2022/04/14 04:14:21;;;;;;;;;;;;;;;;;;5094057;28;19912;-49
2022/04/14 04:16:48;;;;;;;;;;;;;;;;;;5115335;28;19954;-55
2022/04/14 04:19:14;;;;;;;;;;;;;;;;;;5115291;28;19969;-54
2022/04/14 04:21:41;;;;;;;;;;;;;;;;;;5115441;28;20289;-54
2022/04/14 04:24:07;;;;;;;;;;;;;;;;;;5115557;28;20242;-50
2022/04/14 04:26:34;;;;;;;;;;;;;;;;;;5115305;28;19914;-53
2022/04/14 04:29:00;;;;;;;;;;;;;;;;;;5115010;28;19957;-50
2022/04/14 04:31:27;;;;;;;;;;;;;;;;;;5113995;28;19915;-56
2022/04/14 04:33:53;;;;;;;;;;;;;;;;;;5114350;28;19908;-52
2022/04/14 04:36:20;;;;;;;;;;;;;;;;;;5115113;28;20058;-55
2022/04/14 04:38:46;;;;;;;;;;;;;;;;;;5115305;28;19916;-55
2022/04/14 04:41:12;;;;;;;;;;;;;;;;;;5114756;28;19912;-53
2022/04/14 04:43:39;;;;;;;;;;;;;;;;;;5114721;28;19915;-54
2022/04/14 04:46:07;;;;;;;;;;;;;;;;;;5115373;28;19914;-55
2022/04/14 04:48:33;;;;;;;;;;;;;;;;;;5114873;28;19908;-51
2022/04/14 04:51:00;;;;;;;;;;;;;;;;;;5113777;28;19908;-50
2022/04/14 04:53:26;;;;;;;;;;;;;;;;;;5113328;28;20339;-53
2022/04/14 04:55:53;;;;;;;;;;;;;;;;;;5114366;28;20298;-51
2022/04/14 04:58:19;;;;;;;;;;;;;;;;;;5113986;28;19920;-54
2022/04/14 05:00:46;;;;;;;;;;;;;;;;;;5114674;28;20009;-56
2022/04/14 05:03:13;;;;;;;;;;;;;;;;;;5113584;28;19912;-55
2022/04/14 05:05:40;;;;;;;;;;;;;;;;;;5114475;28;19919;-54
2022/04/14 05:08:07;;;;;;;;;;;;;;;;;;5114312;28;19923;-44
2022/04/14 05:10:34;;;;;;;;;;;;;;;;;;5114273;28;19917;-50
2022/04/14 05:13:00;;;;;;;;;;;;;;;;;;5114671;28;19908;-48
2022/04/14 05:15:27;;;;;;;;;;;;;;;;;;5114520;28;19911;-49
2022/04/14 05:17:53;;;;;;;;;;;;;;;;;;5114459;28;20243;-52
2022/04/14 05:20:20;;;;;;;;;;;;;;;;;;5114204;28;19988;-48
2022/04/14 05:22:46;;;;;;;;;;;;;;;;;;5113585;28;19908;-49
2022/04/14 05:25:12;;;;;;;;;;;;;;;;;;5113377;28;19949;-49
2022/04/14 05:27:39;;;;;;;;;;;;;;;;;;5114451;28;19923;-55
2022/04/14 05:30:06;;;;;;;;;;;;;;;;;;5114097;28;19908;-57
2022/04/14 05:32:32;;;;;;;;;;;;;;;;;;5114112;28;19938;-54
2022/04/14 05:34:58;;;;;;;;;;;;;;;;;;5114243;28;19930;-48
2022/04/14 05:37:25;;;;;;;;;;;;;;;;;;5113451;28;19955;-51
2022/04/14 05:39:51;;;;;;;;;;;;;;;;;;5113776;28;19907;-55
2022/04/14 05:42:18;;;;;;;;;;;;;;;;;;5113837;28;19907;-55
2022/04/14 05:44:44;;;;;;;;;;;;;;;;;;5113386;28;19911;-53
2022/04/14 05:47:11;;;;;;;;;;;;;;;;;;5113117;28;19908;-47
2022/04/14 05:49:37;;;;;;;;;;;;;;;;;;5113899;28;19911;-52
2022/04/14 05:52:04;;;;;;;;;;;;;;;;;;5113561;28;20011;-49
2022/04/14 05:54:30;;;;;;;;;;;;;;;;;;5111659;28;19915;-51
2022/04/14 05:56:56;;;;;;;;;;;;;;;;;;5113416;28;20472;-54
2022/04/14 05:59:23;;;;;;;;;;;;;;;;;;5112219;28;19912;-50
2022/04/14 06:01:49;;;;;;;;;;;;;;;;;;5113128;28;19984;-48
2022/04/14 06:04:16;;;;;;;;;;;;;;;;;;5112851;28;19927;-54
2022/04/14 06:06:45;;;;;;;;;;;;;;;;;;5113495;28;19912;-52
2022/04/14 06:09:15;;;;;;;;;;;;;;;;;;5112943;28;19934;-51
2022/04/14 06:11:41;;;;;;;;;;;;;;;;;;5113259;28;19908;-56
2022/04/14 06:14:08;;;;;;;;;;;;;;;;;;5112450;28;20389;-53
2022/04/14 06:16:34;;;;;;;;;;;;;;;;;;5113425;28;20365;-56
2022/04/14 06:19:01;;;;;;;;;;;;;;;;;;5112107;28;20297;-55
2022/04/14 06:21:27;;;;;;;;;;;;;;;;;;5113202;28;19969;-57
2022/04/14 06:23:56;;;;;;;;;;;;;;;;;;5113320;28;20009;-53
2022/04/14 06:26:22;;;;;;;;;;;;;;;;;;5112239;28;19998;-52
2022/04/14 06:28:48;;;;;;;;;;;;;;;;;;5112135;28;19908;-56
2022/04/14 06:31:15;;;;;;;;;;;;;;;;;;5111767;28;20377;-55
2022/04/14 06:33:41;;;;;;;;;;;;;;;;;;5112994;28;20326;-52
2022/04/14 06:36:08;;;;;;;;;;;;;;;;;;5112658;28;19912;-45
2022/04/14 06:38:34;;;;;;;;;;;;;;;;;;5112813;28;19969;-42
2022/04/14 06:41:01;;;;;;;;;;;;;;;;;;5112403;28;19908;-43
2022/04/14 06:43:28;;;;;;;;;;;;;;;;;;5112586;28;19908;-43
2022/04/14 06:45:57;;;;;;;;;;;;;;;;;;5111274;28;19976;-44
2022/04/14 06:48:24;;;;;;;;;;;;;;;;;;5112765;28;19954;-45
2022/04/14 06:50:50;;;;;;;;;;;;;;;;;;5113123;28;19908;-46
2022/04/14 06:53:17;;;;;;;;;;;;;;;;;;5112883;28;20420;-42
2022/04/14 06:55:47;;;;;;;;;;;;;;;;;;5112943;28;19912;-48
2022/04/14 06:58:14;;;;;;;;;;;;;;;;;;5111159;28;20349;-48
2022/04/14 07:00:41;;;;;;;;;;;;;;;;;;5112592;28;19908;-52
2022/04/14 07:03:07;;;;;;;;;;;;;;;;;;5112783;28;20038;-47
2022/04/14 07:05:33;;;;;;;;;;;;;;;;;;5112096;28;19964;-52
2022/04/14 07:08:00;;;;;;;;;;;;;;;;;;5112650;28;19960;-48
2022/04/14 07:10:27;;;;;;;;;;;;;;;;;;5111927;28;19931;-56
2022/04/14 07:12:55;;;;;;;;;;;;;;;;;;5112040;28;19998;-53
2022/04/14 07:15:22;;;;;;;;;;;;;;;;;;5111916;28;19907;-52
2022/04/14 07:17:48;;;;;;;;;;;;;;;;;;5112918;28;19968;-50
2022/04/14 07:20:15;;;;;;;;;;;;;;;;;;5112198;28;19907;-55
2022/04/14 07:22:42;;;;;;;;;;;;;;;;;;5112003;28;19934;-56
2022/04/14 07:25:08;;;;;;;;;;;;;;;;;;5112716;28;20369;-52
2022/04/14 07:27:34;;;;;;;;;;;;;;;;;;5113688;28;19914;-53
2022/04/14 07:30:01;;;;;;;;;;;;;;;;;;5116083;28;19965;-56
2022/04/14 07:32:28;;;;;;;;;;;;;;;;;;5113968;28;19912;-50
2022/04/14 07:34:54;;;;;;;;;;;;;;;;;;5115296;28;20271;-56
2022/04/14 07:37:21;;;;;;;;;;;;;;;;;;5115673;28;19957;-51
2022/04/14 07:39:47;;;;;;;;;;;;;;;;;;5116044;28;19912;-52
2022/04/14 07:42:13;;;;;;;;;;;;;;;;;;5115539;27;19908;-56
2022/04/14 07:44:40;;;;;;;;;;;;;;;;;;5115966;28;20354;-52
2022/04/14 07:47:06;;;;;;;;;;;;;;;;;;5115993;28;20258;-53
2022/04/14 07:49:33;;;;;;;;;;;;;;;;;;5115794;28;20284;-48
2022/04/14 07:52:00;;;;;;;;;;;;;;;;;;5115843;28;20315;-54
2022/04/14 07:54:26;;;;;;;;;;;;;;;;;;5116283;28;19940;-54
2022/04/14 07:56:53;;;;;;;;;;;;;;;;;;5116096;28;19911;-53
2022/04/14 07:59:19;;;;;;;;;;;;;;;;;;5115973;28;19989;-52
2022/04/14 08:01:46;;;;;;;;;;;;;;;;;;5108698;28;20204;-52
2022/04/14 08:04:12;;;;;;;;;;;;;;;;;;5094444;28;19920;-57
2022/04/14 08:06:39;;;;;;;;;;;;;;;;;;5095436;28;19912;-55
2022/04/14 08:09:06;;;;;;;;;;;;;;;;;;5095310;28;19908;-54
2022/04/14 08:11:33;;;;;;;;;;;;;;;;;;5095295;28;20220;-56
2022/04/14 08:14:00;;;;;;;;;;;;;;;;;;5095366;28;20331;-47
2022/04/14 08:16:26;;;;;;;;;;;;;;;;;;5096169;28;19916;-53
2022/04/14 08:18:53;;;;;;;;;;;;;;;;;;5094621;28;19965;-53
2022/04/14 08:21:20;;;;;;;;;;;;;;;;;;5095440;28;19994;-57
2022/04/14 08:23:46;;;;;;;;;;;;;;;;;;5094230;28;19908;-47
2022/04/14 08:26:13;;;;;;;;;;;;;;;;;;5094374;28;19920;-54
2022/04/14 08:28:41;;;;;;;;;;;;;;;;;;5095207;28;19934;-51
2022/04/14 08:31:07;;;;;;;;;;;;;;;;;;5094457;28;19915;-50
2022/04/14 08:33:34;;;;;;;;;;;;;;;;;;5094403;28;19908;-48
2022/04/14 08:36:00;;;;;;;;;;;;;;;;;;5094736;28;20394;-56
2022/04/14 08:38:27;;;;;;;;;;;;;;;;;;5094724;28;19916;-53
2022/04/14 08:40:53;;;;;;;;;;;;;;;;;;5094947;28;19908;-55
2022/04/14 08:43:20;;;;;;;;;;;;;;;;;;5093942;28;19908;-50
2022/04/14 08:45:46;;;;;;;;;;;;;;;;;;5094730;28;19908;-48
2022/04/14 08:48:13;;;;;;;;;;;;;;;;;;5094457;28;19935;-50
2022/04/14 08:50:39;;;;;;;;;;;;;;;;;;5094841;28;19908;-54
2022/04/14 08:53:07;;;;;;;;;;;;;;;;;;5094862;28;20034;-53
2022/04/14 08:55:33;;;;;;;;;;;;;;;;;;5094645;28;19956;-46
2022/04/14 08:58:00;;;;;;;;;;;;;;;;;;5094380;28;19939;-46
2022/04/14 09:00:27;;;;;;;;;;;;;;;;;;5094071;28;20064;-48
2022/04/14 09:02:54;;;;;;;;;;;;;;;;;;5092935;28;20006;-50
2022/04/14 09:05:20;;;;;;;;;;;;;;;;;;5094300;28;19920;-49
2022/04/14 09:07:47;;;;;;;;;;;;;;;;;;5094269;28;19912;-48
2022/04/14 09:10:13;;;;;;;;;;;;;;;;;;5093899;28;19908;-48
2022/04/14 09:12:40;;;;;;;;;;;;;;;;;;5093813;28;19908;-47
2022/04/14 09:15:06;;;;;;;;;;;;;;;;;;5094586;28;19951;-49
2022/04/14 09:17:33;;;;;;;;;;;;;;;;;;5094471;28;19923;-51
2022/04/14 09:19:59;;;;;;;;;;;;;;;;;;5093725;28;19912;-49
2022/04/14 09:22:26;;;;;;;;;;;;;;;;;;5093299;28;19912;-50
2022/04/14 09:24:52;;;;;;;;;;;;;;;;;;5094103;28;19908;-50
2022/04/14 09:27:18;;;;;;;;;;;;;;;;;;5093943;28;19931;-47
2022/04/14 09:29:45;;;;;;;;;;;;;;;;;;5092834;28;19908;-55
2022/04/14 09:32:11;;;;;;;;;;;;;;;;;;5093559;28;20044;-49
2022/04/14 09:34:38;;;;;;;;;;;;;;;;;;5094180;28;20362;-46
2022/04/14 09:37:05;;;;;;;;;;;;;;;;;;5093712;28;20005;-49
2022/04/14 09:39:32;;;;;;;;;;;;;;;;;;5094055;28;19920;-49
2022/04/14 09:41:58;;;;;;;;;;;;;;;;;;5093903;28;20355;-52
2022/04/14 09:44:24;;;;;;;;;;;;;;;;;;5093625;28;19908;-52
2022/04/14 09:46:51;;;;;;;;;;;;;;;;;;5094052;28;19908;-48
2022/04/14 09:49:17;;;;;;;;;;;;;;;;;;5093526;28;19908;-54
2022/04/14 09:51:44;;;;;;;;;;;;;;;;;;5093511;28;19963;-52
2022/04/14 09:54:17;;;;;;;;;;;;;;;;;;5093334;28;19961;-48
2022/04/14 09:56:43;;;;;;;;;;;;;;;;;;5093603;28;19908;-54
2022/04/14 09:59:10;;;;;;;;;;;;;;;;;;5093812;28;20393;-54
2022/04/14 10:01:37;;;;;;;;;;;;;;;;;;5093537;28;20377;-49
2022/04/14 10:04:03;;;;;;;;;;;;;;;;;;5093193;28;20053;-50
2022/04/14 10:06:30;;;;;;;;;;;;;;;;;;5093005;28;19912;-47
2022/04/14 10:08:57;;;;;;;;;;;;;;;;;;5093071;28;19908;-56
2022/04/14 10:11:23;;;;;;;;;;;;;;;;;;5093444;28;19915;-47
2022/04/14 10:13:50;;;;;;;;;;;;;;;;;;5093214;28;19915;-44
2022/04/14 10:16:20;;;;;;;;;;;;;;;;;;5092812;28;19908;-56
2022/04/14 10:18:47;;;;;;;;;;;;;;;;;;5093501;28;20281;-56
2022/04/14 10:21:14;;;;;;;;;;;;;;;;;;5093151;28;19908;-52
2022/04/14 10:23:40;;;;;;;;;;;;;;;;;;5093561;28;20350;-56
2022/04/14 10:26:06;;;;;;;;;;;;;;;;;;5093288;28;19930;-49
2022/04/14 10:28:33;;;;;;;;;;;;;;;;;;5093313;28;20308;-49
2022/04/14 10:30:59;;;;;;;;;;;;;;;;;;5093441;28;19961;-43
2022/04/14 10:33:26;;;;;;;;;;;;;;;;;;5093874;28;19904;-47
2022/04/14 10:35:53;;;;;;;;;;;;;;;;;;5092852;28;19915;-50
2022/04/14 10:38:19;;;;;;;;;;;;;;;;;;5092978;28;19951;-56
2022/04/14 10:40:46;;;;;;;;;;;;;;;;;;5091627;28;20371;-51
2022/04/14 10:43:13;;;;;;;;;;;;;;;;;;5093032;28;19923;-53
2022/04/14 10:45:39;;;;;;;;;;;;;;;;;;5092850;28;19983;-56
2022/04/14 10:48:05;;;;;;;;;;;;;;;;;;5092919;28;19924;-56
2022/04/14 10:50:32;;;;;;;;;;;;;;;;;;5092545;28;19962;-51
2022/04/14 10:52:58;;;;;;;;;;;;;;;;;;5092922;28;19955;-46
2022/04/14 10:55:25;;;;;;;;;;;;;;;;;;5092984;28;19931;-52
2022/04/14 10:57:51;;;;;;;;;;;;;;;;;;5091664;28;20003;-54
2022/04/14 11:00:18;;;;;;;;;;;;;;;;;;5093030;28;19915;-54
2022/04/14 11:02:44;;;;;;;;;;;;;;;;;;5095408;28;19950;-48
2022/04/14 11:05:11;;;;;;;;;;;;;;;;;;5096904;28;19920;-52
2022/04/14 11:07:37;;;;;;;;;;;;;;;;;;5096675;28;20331;-54
2022/04/14 11:10:04;;;;;;;;;;;;;;;;;;5097010;28;19930;-47
2022/04/14 11:12:33;;;;;;;;;;;;;;;;;;5096650;28;19908;-41
2022/04/14 11:15:00;;;;;;;;;;;;;;;;;;5096675;28;19990;-45
2022/04/14 11:17:26;;;;;;;;;;;;;;;;;;5096837;28;19927;-44
2022/04/14 11:19:53;;;;;;;;;;;;;;;;;;5097093;28;20355;-49
2022/04/14 11:22:19;;;;;;;;;;;;;;;;;;5096767;28;20342;-45
2022/04/14 11:24:46;;;;;;;;;;;;;;;;;;5096663;28;19976;-53
2022/04/14 11:27:12;;;;;;;;;;;;;;;;;;5096971;28;19948;-52
2022/04/14 11:29:39;;;;;;;;;;;;;;;;;;5096485;28;20025;-55
2022/04/14 11:32:05;;;;;;;;;;;;;;;;;;5096593;28;19908;-57
2022/04/14 11:34:32;;;;;;;;;;;;;;;;;;5096643;28;19915;-54
2022/04/14 11:37:01;;;;;;;;;;;;;;;;;;5096609;28;20017;-51
2022/04/14 11:39:27;;;;;;;;;;;;;;;;;;5096719;28;19916;-48
2022/04/14 11:41:54;;;;;;;;;;;;;;;;;;5096321;28;19908;-53
2022/04/14 11:44:20;;;;;;;;;;;;;;;;;;5096473;28;19934;-54
2022/04/14 11:46:47;;;;;;;;;;;;;;;;;;5096820;28;19908;-48
2022/04/14 11:49:14;;;;;;;;;;;;;;;;;;5096730;28;19914;-46
2022/04/14 11:51:40;;;;;;;;;;;;;;;;;;5096232;28;19997;-52
2022/04/14 11:54:07;;;;;;;;;;;;;;;;;;5096427;28;19996;-49
2022/04/14 11:56:33;;;;;;;;;;;;;;;;;;5095513;28;19947;-51
2022/04/14 11:59:00;;;;;;;;;;;;;;;;;;5096088;28;20270;-51
2022/04/14 12:01:26;;;;;;;;;;;;;;;;;;5096377;28;19912;-51
2022/04/14 12:03:53;;;;;;;;;;;;;;;;;;5096237;28;19923;-51
2022/04/14 12:06:19;;;;;;;;;;;;;;;;;;5096074;28;19927;-52
2022/04/14 12:08:46;;;;;;;;;;;;;;;;;;5096397;28;19954;-54
2022/04/14 12:11:13;;;;;;;;;;;;;;;;;;5095754;28;19934;-52
2022/04/14 12:13:39;;;;;;;;;;;;;;;;;;5095137;28;19915;-56
2022/04/14 12:16:06;;;;;;;;;;;;;;;;;;5094403;28;19908;-53
2022/04/14 12:18:32;;;;;;;;;;;;;;;;;;5095709;28;19920;-56
2022/04/14 12:20:59;;;;;;;;;;;;;;;;;;5095906;28;19909;-54
2022/04/14 12:23:25;;;;;;;;;;;;;;;;;;5095403;28;19930;-55
2022/04/14 12:25:56;;;;;;;;;;;;;;;;;;5095545;28;19958;-55
2022/04/14 12:28:22;;;;;;;;;;;;;;;;;;5095409;28;19966;-56
2022/04/14 12:30:49;;;;;;;;;;;;;;;;;;5095543;28;19943;-53
2022/04/14 12:33:15;;;;;;;;;;;;;;;;;;5095768;28;19908;-51
2022/04/14 12:35:42;;;;;;;;;;;;;;;;;;5095311;28;19915;-46
2022/04/14 12:38:08;;;;;;;;;;;;;;;;;;5095116;28;19973;-54
2022/04/14 12:40:35;;;;;;;;;;;;;;;;;;5095319;28;19915;-52
2022/04/14 12:43:01;;;;;;;;;;;;;;;;;;5095054;28;19908;-50
2022/04/14 12:45:28;;;;;;;;;;;;;;;;;;5095519;28;19935;-56
2022/04/14 12:47:54;;;;;;;;;;;;;;;;;;5095230;28;19915;-54
2022/04/14 12:50:22;;;;;;;;;;;;;;;;;;5095242;28;19923;-46
2022/04/14 12:52:48;;;;;;;;;;;;;;;;;;5095288;28;19914;-49
2022/04/14 12:55:15;;;;;;;;;;;;;;;;;;5095103;28;19908;-54
2022/04/14 12:57:41;;;;;;;;;;;;;;;;;;5094930;28;19957;-52
2022/04/14 13:00:08;;;;;;;;;;;;;;;;;;5095200;28;20370;-52
2022/04/14 13:02:34;;;;;;;;;;;;;;;;;;5095131;28;20289;-53
2022/04/14 13:05:01;;;;;;;;;;;;;;;;;;5094893;28;19920;-56
2022/04/14 13:07:27;;;;;;;;;;;;;;;;;;5094901;28;19908;-53
2022/04/14 13:09:54;;;;;;;;;;;;;;;;;;5094901;28;19951;-56
2022/04/14 13:12:20;;;;;;;;;;;;;;;;;;5094645;28;19915;-54
2022/04/14 13:14:47;;;;;;;;;;;;;;;;;;5094732;28;19935;-46
2022/04/14 13:17:13;;;;;;;;;;;;;;;;;;5094593;28;19909;-55
2022/04/14 13:19:41;;;;;;;;;;;;;;;;;;5094322;28;19916;-53
2022/04/14 13:22:08;;;;;;;;;;;;;;;;;;5094304;28;19923;-53
2022/04/14 13:24:35;;;;;;;;;;;;;;;;;;5093668;28;19908;-55
2022/04/14 13:27:01;;;;;;;;;;;;;;;;;;5102079;28;20359;-44
2022/04/14 13:29:27;;;;;;;;;;;;;;;;;;5106867;28;20404;-53
2022/04/14 13:31:54;;;;;;;;;;;;;;;;;;5094299;28;20384;-53
2022/04/14 13:34:20;;;;;;;;;;;;;;;;;;5093865;28;19908;-50
2022/04/14 13:36:47;;;;;;;;;;;;;;;;;;5094470;28;20366;-53
2022/04/14 13:39:13;;;;;;;;;;;;;;;;;;5094539;28;19916;-52
2022/04/14 13:41:40;;;;;;;;;;;;;;;;;;5094412;28;19915;-56
2022/04/14 13:44:08;;;;;;;;;;;;;;;;;;5094391;28;19908;-53
2022/04/14 13:46:34;;;;;;;;;;;;;;;;;;5094521;28;19919;-57
2022/04/14 13:49:01;;;;;;;;;;;;;;;;;;5094064;28;19912;-56
2022/04/14 13:51:28;;;;;;;;;;;;;;;;;;5093998;28;19923;-53
2022/04/14 13:53:54;;;;;;;;;;;;;;;;;;5094069;28;19908;-53
2022/04/14 13:56:21;;;;;;;;;;;;;;;;;;5099008;28;19916;-53
2022/04/14 13:58:47;;;;;;;;;;;;;;;;;;5114212;28;19994;-57
2022/04/14 14:01:14;;;;;;;;;;;;;;;;;;5113902;28;19914;-52
2022/04/14 14:03:40;;;;;;;;;;;;;;;;;;5113817;28;20007;-48
2022/04/14 14:06:07;;;;;;;;;;;;;;;;;;5114320;28;19919;-55
2022/04/14 14:08:33;;;;;;;;;;;;;;;;;;5114723;28;19908;-52
2022/04/14 14:11:00;;;;;;;;;;;;;;;;;;5113890;28;20300;-55
2022/04/14 14:13:26;;;;;;;;;;;;;;;;;;5098955;28;19916;-47
2022/04/14 14:15:53;;;;;;;;;;;;;;;;;;5094041;28;19912;-44
2022/04/14 14:18:19;;;;;;;;;;;;;;;;;;5093995;28;20374;-42
2022/04/14 14:20:47;;;;;;;;;;;;;;;;;;5094341;28;20328;-48
2022/04/14 14:23:14;;;;;;;;;;;;;;;;;;5094100;28;19904;-52
2022/04/14 14:25:40;;;;;;;;;;;;;;;;;;5093739;28;20324;-47
2022/04/14 14:28:07;;;;;;;;;;;;;;;;;;5093474;28;19904;-51
2022/04/14 14:30:33;;;;;;;;;;;;;;;;;;5093665;28;19912;-48
2022/04/14 14:32:59;;;;;;;;;;;;;;;;;;5093519;28;19905;-55
2022/04/14 14:35:27;;;;;;;;;;;;;;;;;;5093418;28;19954;-51
2022/04/14 14:37:54;;;;;;;;;;;;;;;;;;5093536;28;20351;-48
2022/04/14 14:40:22;;;;;;;;;;;;;;;;;;5093143;28;19912;-54
2022/04/14 14:42:48;;;;;;;;;;;;;;;;;;5093550;28;19914;-52
2022/04/14 14:45:15;;;;;;;;;;;;;;;;;;5093379;28;19908;-52
2022/04/14 14:47:42;;;;;;;;;;;;;;;;;;5093268;28;19995;-49
2022/04/14 14:50:08;;;;;;;;;;;;;;;;;;5093169;28;19915;-49
2022/04/14 14:52:35;;;;;;;;;;;;;;;;;;5093293;28;19916;-53
2022/04/14 14:55:01;;;;;;;;;;;;;;;;;;5093547;28;19915;-52
2022/04/14 15:00:13;;;;;;;;;;;;;;;;;;5092810;28;20030;-52
2022/04/14 15:02:39;;;;;;;;;;;;;;;;;;5093157;28;19966;-50
2022/04/14 15:05:06;;;;;;;;;;;;;;;;;;5093087;28;20366;-50
2022/04/14 15:07:32;;;;;;;;;;;;;;;;;;5093131;28;19994;-45
2022/04/14 15:09:59;;;;;;;;;;;;;;;;;;5093374;28;19908;-56
2022/04/14 15:12:25;;;;;;;;;;;;;;;;;;5092615;28;19908;-55
2022/04/14 15:14:51;;;;;;;;;;;;;;;;;;5093202;28;20376;-48
2022/04/14 15:17:18;;;;;;;;;;;;;;;;;;5093033;28;19911;-47
2022/04/14 15:19:44;;;;;;;;;;;;;;;;;;5093464;28;19919;-47
2022/04/14 15:22:13;;;;;;;;;;;;;;;;;;5092846;28;19918;-47
2022/04/14 15:24:40;;;;;;;;;;;;;;;;;;5093169;28;20350;-43
2022/04/14 15:27:06;;;;;;;;;;;;;;;;;;5092871;28;19908;-50
2022/04/14 15:29:34;;;;;;;;;;;;;;;;;;5092697;28;19918;-51
2022/04/14 15:32:01;;;;;;;;;;;;;;;;;;5093063;28;19983;-50
2022/04/14 15:34:27;;;;;;;;;;;;;;;;;;5092649;28;20370;-51
2022/04/14 15:36:54;;;;;;;;;;;;;;;;;;5092761;28;20251;-48
2022/04/14 15:39:21;;;;;;;;;;;;;;;;;;5092937;28;19977;-46
2022/04/14 15:41:47;;;;;;;;;;;;;;;;;;5092624;28;19908;-49
2022/04/14 15:44:14;;;;;;;;;;;;;;;;;;5092747;28;19999;-47
2022/04/14 15:46:40;;;;;;;;;;;;;;;;;;5093170;28;20358;-51
2022/04/14 15:49:07;;;;;;;;;;;;;;;;;;5095846;28;20358;-46
2022/04/14 15:51:34;;;;;;;;;;;;;;;;;;5096652;28;19908;-51
2022/04/14 15:54:00;;;;;;;;;;;;;;;;;;5096323;28;19938;-52
2022/04/14 15:56:27;;;;;;;;;;;;;;;;;;5096385;28;19908;-56
2022/04/14 15:58:53;;;;;;;;;;;;;;;;;;5096617;28;19920;-52
2022/04/14 16:01:20;;;;;;;;;;;;;;;;;;5096486;28;20358;-50
2022/04/14 16:03:46;;;;;;;;;;;;;;;;;;5096403;28;20316;-53
2022/04/14 16:06:14;;;;;;;;;;;;;;;;;;5096200;28;20011;-52
2022/04/14 16:08:40;;;;;;;;;;;;;;;;;;5096333;28;19912;-50
2022/04/14 16:13:51;;;;;;;;;;;;;;;;;;5096354;28;19969;-53
2022/04/14 16:16:17;;;;;;;;;;;;;;;;;;5096127;28;19930;-53
2022/04/14 16:18:44;;;;;;;;;;;;;;;;;;5096166;28;19915;-53
2022/04/14 16:21:10;;;;;;;;;;;;;;;;;;5096165;28;20341;-53
2022/04/14 16:23:37;;;;;;;;;;;;;;;;;;5096082;28;20251;-55
2022/04/14 16:26:03;;;;;;;;;;;;;;;;;;5095765;28;19908;-56
2022/04/14 16:28:30;;;;;;;;;;;;;;;;;;5095621;28;19952;-53
2022/04/14 16:30:56;;;;;;;;;;;;;;;;;;5096092;28;19908;-58
2022/04/14 16:33:23;;;;;;;;;;;;;;;;;;5095753;28;19955;-50
2022/04/14 16:35:49;;;;;;;;;;;;;;;;;;5095953;28;19915;-48
2022/04/14 16:38:16;;;;;;;;;;;;;;;;;;5095443;28;19920;-50
2022/04/14 16:40:42;;;;;;;;;;;;;;;;;;5095514;28;19908;-54
2022/04/14 16:43:09;;;;;;;;;;;;;;;;;;5095574;28;20426;-40
2022/04/14 16:45:35;;;;;;;;;;;;;;;;;;5095579;28;19933;-49